Westboro, Wisconsin
Current Conditions -  °F | °C
As of 8:15 PM on Saturday 25 Oct 2014 (Local Time) from KMDZ Reporting Station
Clear Clear  
Wind Chill: 42°   Ceiling: Unl
Heat Index: 45°   Visibility: 10mi
Dew Point: 28°   Wind: 6mph
Humidity: 51%   Direction: 290°WNW
Pressure: 29.96"   Gusts: NA
Location:  45.35°N, 90.3°W
Report Text: KMDZ 260115Z AUTO 29005KT 10SM CLR 07/M02 A2996 RMK AO2 T00721023
Loading
Personal Weather Stations






























Interactive Weather Map
Tropical Storm Tracking
New forecast layout! Learn more

10-Day Weather Forecast

Advertisements
Track Severe Weather on mobile